Time,TemperatureF,DewpointF,PressureIn,WindDirection,WindDirectionDegrees,WindSpeedMPH,WindSpeedGustMPH,Humidity,HourlyPrecipIn,Conditions,Clouds,dailyrainin,SoftwareType,DateUTC
2013-05-26 00:01:00,75.7,69.5,30.07,ENE,68,4.7,10.4,81,0.00,RA,,0.00,WeatherDisplay:10.37,2013-05-26 10:01:00,
2013-05-26 00:06:00,75.9,69.6,30.07,North,360,5.0,9.2,81,0.00,RA,,0.00,WeatherDisplay:10.37,2013-05-26 10:06:00,
2013-05-26 00:11:00,75.9,70.0,30.06,NNE,22,3.5,6.8,82,0.00,CLR,,0.00,WeatherDisplay:10.37,2013-05-26 10:11:00,
2013-05-26 00:16:00,75.9,70.0,30.06,East,90,3.7,6.9,82,0.00,CLR,,0.00,WeatherDisplay:10.37,2013-05-26 10:16:00,
2013-05-26 00:21:00,75.7,69.8,30.06,ESE,112,6.0,8.1,82,0.00,CLR,,0.00,WeatherDisplay:10.37,2013-05-26 10:21:00,
2013-05-26 00:26:00,75.7,69.8,30.07,NE,45,7.3,8.1,82,0.00,CLR,,0.00,WeatherDisplay:10.37,2013-05-26 10:26:00,
2013-05-26 00:31:00,75.7,69.5,30.07,NE,45,4.2,5.8,81,0.00,CLR,,0.00,WeatherDisplay:10.37,2013-05-26 10:31:00,
2013-05-26 00:36:00,75.7,69.5,30.07,NE,45,7.2,11.5,81,0.00,CLR,,0.00,WeatherDisplay:10.37,2013-05-26 10:36:00,
2013-05-26 00:42:00,75.7,69.5,30.07,ESE,112,7.1,12.7,81,0.00,CLR,,0.00,WeatherDisplay:10.37,2013-05-26 10:42:00,
2013-05-26 00:47:00,75.7,69.5,30.06,NNE,22,5.9,13.8,81,0.00,CLR,,0.00,WeatherDisplay:10.37,2013-05-26 10:47:00,
2013-05-26 00:52:00,75.7,69.5,30.06,East,90,1.9,4.2,81,0.00,CLR,,0.00,WeatherDisplay:10.37,2013-05-26 10:52:00,
2013-05-26 00:57:00,75.7,69.1,30.06,ENE,68,6.9,8.1,80,0.00,CLR,,0.00,WeatherDisplay:10.37,2013-05-26 10:57:00,
2013-05-26 01:02:00,75.7,69.1,30.06,East,90,6.3,8.1,80,0.00,CLR,,0.00,WeatherDisplay:10.37,2013-05-26 11:02:00,
2013-05-26 01:07:00,75.6,69.0,30.06,ENE,68,9.8,13.5,80,0.00,CLR,,0.00,WeatherDisplay:10.37,2013-05-26 11:07:00,
2013-05-26 01:12:00,75.7,69.1,30.06,SSE,158,5.5,8.1,80,0.00,CLR,,0.00,WeatherDisplay:10.37,2013-05-26 11:12:00,
2013-05-26 01:17:00,75.7,69.1,30.06,NNW,338,5.8,5.8,80,0.00,CLR,,0.00,WeatherDisplay:10.37,2013-05-26 11:17:00,
2013-05-26 01:22:00,75.7,69.1,30.05,East,90,6.8,8.8,80,0.00,CLR,,0.00,WeatherDisplay:10.37,2013-05-26 11:22:00,
2013-05-26 01:27:00,75.7,69.1,30.05,WSW,248,5.8,8.1,80,0.00,CLR,,0.00,WeatherDisplay:10.37,2013-05-26 11:27:00,
2013-05-26 01:32:00,75.7,69.1,30.05,East,90,6.8,9.2,80,0.00,CLR,,0.00,WeatherDisplay:10.37,2013-05-26 11:32:00,
2013-05-26 01:37:00,75.7,69.1,30.04,NE,45,4.2,5.8,80,0.00,CLR,,0.00,WeatherDisplay:10.37,2013-05-26 11:37:00,
2013-05-26 01:42:00,75.6,69.0,30.04,East,90,5.3,5.8,80,0.00,CLR,,0.00,WeatherDisplay:10.37,2013-05-26 11:42:00,
2013-05-26 01:47:00,75.6,69.0,30.05,SE,135,4.7,10.4,80,0.00,CLR,,0.00,WeatherDisplay:10.37,2013-05-26 11:47:00,
2013-05-26 01:53:00,75.6,69.0,30.05,NNE,22,10.8,12.7,80,0.00,CLR,,0.00,WeatherDisplay:10.37,2013-05-26 11:53:00,
2013-05-26 01:58:00,75.4,68.8,30.05,NNW,338,5.4,7.3,80,0.00,CLR,,0.00,WeatherDisplay:10.37,2013-05-26 11:58:00,
2013-05-26 02:03:00,75.4,68.8,30.04,East,90,3.4,3.5,80,0.00,CLR,,0.00,WeatherDisplay:10.37,2013-05-26 12:03:00,
2013-05-26 02:08:00,75.4,68.8,30.04,NW,315,6.4,8.1,80,0.00,CLR,,0.00,WeatherDisplay:10.37,2013-05-26 12:08:00,
2013-05-26 02:13:00,75.4,68.4,30.04,East,90,6.9,10.4,79,0.00,CLR,,0.00,WeatherDisplay:10.37,2013-05-26 12:13:00,
2013-05-26 02:18:00,75.4,68.4,30.04,North,360,4.2,5.8,79,0.00,CLR,,0.00,WeatherDisplay:10.37,2013-05-26 12:18:00,
2013-05-26 02:23:00,75.2,68.2,30.04,ESE,112,8.4,10.4,79,0.00,CLR,,0.00,WeatherDisplay:10.37,2013-05-26 12:23:00,
2013-05-26 02:28:00,75.2,68.2,30.04,ESE,112,9.2,10.4,79,0.00,CLR,,0.00,WeatherDisplay:10.37,2013-05-26 12:28:00,
2013-05-26 02:33:00,75.2,68.2,30.04,ESE,112,7.5,9.2,79,0.00,CLR,,0.00,WeatherDisplay:10.37,2013-05-26 12:33:00,
2013-05-26 02:38:00,75.2,68.2,30.04,ENE,68,4.7,6.9,79,0.00,CLR,,0.00,WeatherDisplay:10.37,2013-05-26 12:38:00,
2013-05-26 02:43:00,75.2,68.2,30.04,ESE,112,4.2,5.8,79,0.00,CLR,,0.00,WeatherDisplay:10.37,2013-05-26 12:43:00,
2013-05-26 02:48:00,75.0,68.4,30.03,East,90,2.4,3.5,80,0.00,CLR,,0.00,WeatherDisplay:10.37,2013-05-26 12:48:00,
2013-05-26 02:53:00,74.8,68.2,30.03,ESE,112,3.0,3.5,80,0.00,CLR,,0.00,WeatherDisplay:10.37,2013-05-26 12:53:00,
2013-05-26 02:58:00,74.7,68.1,30.03,ESE,112,4.3,5.8,80,0.00,CLR,,0.00,WeatherDisplay:10.37,2013-05-26 12:58:00,
2013-05-26 03:03:00,74.7,68.1,30.03,ESE,112,8.4,10.4,80,0.00,CLR,,0.00,WeatherDisplay:10.37,2013-05-26 13:03:00,
2013-05-26 03:08:00,74.8,67.8,30.03,North,360,4.9,8.1,79,0.00,CLR,,0.00,WeatherDisplay:10.37,2013-05-26 13:08:00,
2013-05-26 03:14:00,74.8,67.8,30.03,NNE,22,3.2,4.6,79,0.00,CLR,,0.00,WeatherDisplay:10.37,2013-05-26 13:14:00,
2013-05-26 03:19:00,74.7,67.8,30.03,ENE,68,6.8,11.9,79,0.00,CLR,,0.00,WeatherDisplay:10.37,2013-05-26 13:19:00,
2013-05-26 03:24:00,74.8,67.8,30.03,ESE,112,2.8,4.6,79,0.00,CLR,,0.00,WeatherDisplay:10.37,2013-05-26 13:24:00,
2013-05-26 03:29:00,74.7,67.8,30.03,NNE,22,3.4,4.6,79,0.00,CLR,,0.00,WeatherDisplay:10.37,2013-05-26 13:29:00,
2013-05-26 03:34:00,74.7,67.8,30.03,ENE,68,6.3,6.9,79,0.00,CLR,,0.00,WeatherDisplay:10.37,2013-05-26 13:34:00,
2013-05-26 03:39:00,74.7,67.8,30.03,ENE,68,9.3,11.5,79,0.00,CLR,,0.00,WeatherDisplay:10.37,2013-05-26 13:39:00,
2013-05-26 03:44:00,74.7,67.8,30.03,East,90,4.2,5.8,79,0.00,CLR,,0.00,WeatherDisplay:10.37,2013-05-26 13:44:00,
2013-05-26 03:49:00,74.7,67.8,30.03,ESE,112,6.5,9.2,79,0.00,CLR,,0.00,WeatherDisplay:10.37,2013-05-26 13:49:00,
2013-05-26 03:54:00,74.5,67.6,30.03,NE,45,2.6,5.8,79,0.00,CLR,,0.00,WeatherDisplay:10.37,2013-05-26 13:54:00,
2013-05-26 03:59:00,74.3,67.7,30.03,NNE,22,2.4,2.4,80,0.00,CLR,,0.00,WeatherDisplay:10.37,2013-05-26 13:59:00,
2013-05-26 04:04:00,74.1,67.5,30.03,ESE,112,5.2,6.9,80,0.00,CLR,,0.00,WeatherDisplay:10.37,2013-05-26 14:04:00,
2013-05-26 04:09:00,74.1,67.5,30.03,East,90,2.2,2.3,80,0.00,CLR,,0.00,WeatherDisplay:10.37,2013-05-26 14:09:00,
2013-05-26 04:14:00,74.1,67.5,30.03,SSW,202,3.0,3.5,80,0.00,CLR,,0.00,WeatherDisplay:10.37,2013-05-26 14:14:00,
2013-05-26 04:20:00,74.1,67.5,30.03,NE,39,3.0,10.0,80,0.00,CLR,,0.00,WeatherDisplay:10.37,2013-05-26 14:20:00,
2013-05-26 04:25:00,74.1,67.5,30.03,East,90,7.2,9.2,80,0.00,CLR,,0.00,WeatherDisplay:10.37,2013-05-26 14:25:00,
2013-05-26 04:30:00,74.3,67.7,30.03,ENE,68,8.0,9.0,80,0.00,CLR,,0.00,WeatherDisplay:10.37,2013-05-26 14:30:00,
2013-05-26 04:35:00,74.1,67.5,30.03,NE,45,1.6,2.3,80,0.00,CLR,,0.00,WeatherDisplay:10.37,2013-05-26 14:35:00,
2013-05-26 04:40:00,73.9,67.3,30.03,SSW,202,5.1,6.9,80,0.00,CLR,,0.00,WeatherDisplay:10.37,2013-05-26 14:40:00,
2013-05-26 04:45:00,74.3,68.1,30.03,NE,45,6.4,8.1,81,0.00,CLR,,0.00,WeatherDisplay:10.37,2013-05-26 14:45:00,
2013-05-26 04:50:00,74.3,68.1,30.03,ENE,68,5.9,6.9,81,0.00,CLR,,0.00,WeatherDisplay:10.37,2013-05-26 14:50:00,
2013-05-26 04:55:00,74.1,68.3,30.03,ESE,112,6.2,6.9,82,0.00,CLR,,0.00,WeatherDisplay:10.37,2013-05-26 14:55:00,
2013-05-26 05:00:00,73.9,67.7,30.03,East,90,1.6,3.2,81,0.00,CLR,,0.00,WeatherDisplay:10.37,2013-05-26 15:00:00,
2013-05-26 05:05:00,73.9,67.7,30.03,NE,45,2.5,3.5,81,0.00,CLR,,0.00,WeatherDisplay:10.37,2013-05-26 15:05:00,
2013-05-26 05:10:00,73.9,67.7,30.03,NE,45,2.7,3.7,81,0.00,CLR,,0.00,WeatherDisplay:10.37,2013-05-26 15:10:00,
2013-05-26 05:15:00,74.1,67.9,30.03,East,90,4.6,6.8,81,0.00,CLR,,0.00,WeatherDisplay:10.37,2013-05-26 15:15:00,
2013-05-26 05:20:00,74.1,67.9,30.03,NNE,22,1.1,2.3,81,0.00,CLR,,0.00,WeatherDisplay:10.37,2013-05-26 15:20:00,
2013-05-26 05:25:00,74.1,67.9,30.04,SW,225,0.8,5.8,81,0.00,CLR,,0.00,WeatherDisplay:10.37,2013-05-26 15:25:00,
2013-05-26 05:30:00,73.9,67.7,30.04,WNW,292,3.2,4.6,81,0.00,CLR,,0.00,WeatherDisplay:10.37,2013-05-26 15:30:00,
2013-05-26 05:35:00,74.1,67.9,30.04,ESE,112,4.8,6.8,81,0.00,CLR,,0.00,WeatherDisplay:10.37,2013-05-26 15:35:00,
2013-05-26 05:40:00,74.1,67.9,30.04,SE,135,1.5,2.3,81,0.00,CLR,,0.00,WeatherDisplay:10.37,2013-05-26 15:40:00,
2013-05-26 05:46:00,74.3,68.1,30.04,NNE,22,3.7,4.7,81,0.00,CLR,,0.00,WeatherDisplay:10.37,2013-05-26 15:46:00,
2013-05-26 05:51:00,74.3,68.1,30.04,ESE,112,5.8,8.1,81,0.00,CLR,,0.00,WeatherDisplay:10.37,2013-05-26 15:51:00,
2013-05-26 05:56:00,74.3,68.1,30.04,ESE,112,3.5,4.6,81,0.00,CLR,,0.00,WeatherDisplay:10.37,2013-05-26 15:56:00,
2013-05-26 06:01:00,74.3,68.1,30.04,ENE,68,3.5,8.8,81,0.00,CLR,,0.00,WeatherDisplay:10.37,2013-05-26 16:01:00,
2013-05-26 06:06:00,74.5,68.3,30.04,East,90,4.2,5.8,81,0.00,CLR,,0.00,WeatherDisplay:10.37,2013-05-26 16:06:00,
2013-05-26 06:11:00,74.7,68.1,30.05,ENE,68,4.7,5.8,80,0.00,CLR,,0.00,WeatherDisplay:10.37,2013-05-26 16:11:00,
2013-05-26 06:16:00,74.7,68.1,30.05,East,90,3.6,4.6,80,0.00,CLR,,0.00,WeatherDisplay:10.37,2013-05-26 16:16:00,
2013-05-26 06:21:00,74.7,68.1,30.05,SE,135,2.7,3.5,80,0.00,CLR,,0.00,WeatherDisplay:10.37,2013-05-26 16:21:00,
2013-05-26 06:26:00,74.8,68.2,30.05,ENE,68,7.6,7.6,80,0.00,CLR,,0.00,WeatherDisplay:10.37,2013-05-26 16:26:00,
2013-05-26 06:31:00,75.0,68.4,30.05,NE,45,4.7,6.9,80,0.00,CLR,,0.00,WeatherDisplay:10.37,2013-05-26 16:31:00,
2013-05-26 06:36:00,75.6,69.0,30.05,NE,45,5.1,6.9,80,0.19,RA,,0.19,WeatherDisplay:10.37,2013-05-26 16:36:00,
2013-05-26 06:41:00,77.0,69.6,30.05,East,90,3.8,6.9,78,0.19,RA,,0.19,WeatherDisplay:10.37,2013-05-26 16:41:00,
2013-05-26 06:46:00,77.5,69.3,30.05,ESE,112,4.5,5.8,76,0.19,CLR,,0.19,WeatherDisplay:10.37,2013-05-26 16:46:00,
2013-05-26 06:51:00,77.7,69.1,30.05,NE,45,4.6,8.1,75,0.19,CLR,,0.19,WeatherDisplay:10.37,2013-05-26 16:51:00,
2013-05-26 06:57:00,78.1,68.7,30.05,ESE,112,4.9,6.9,73,0.19,CLR,,0.19,WeatherDisplay:10.37,2013-05-26 16:57:00,
2013-05-26 07:02:00,77.9,68.5,30.06,ENE,68,3.9,4.6,73,0.19,CLR,,0.19,WeatherDisplay:10.37,2013-05-26 17:02:00,
2013-05-26 07:07:00,78.8,69.4,30.06,NNW,338,3.2,3.7,73,0.19,CLR,,0.19,WeatherDisplay:10.37,2013-05-26 17:07:00,
2013-05-26 07:12:00,79.5,69.7,30.06,ESE,112,3.8,5.8,72,0.19,CLR,,0.19,WeatherDisplay:10.37,2013-05-26 17:12:00,
2013-05-26 07:17:00,79.3,68.7,30.06,NNW,338,7.2,9.2,70,0.19,CLR,,0.19,WeatherDisplay:10.37,2013-05-26 17:17:00,
2013-05-26 07:22:00,79.3,69.1,30.06,NE,45,3.2,8.1,71,0.19,CLR,,0.19,WeatherDisplay:10.37,2013-05-26 17:22:00,
2013-05-26 07:27:00,79.7,68.6,30.06,ESE,112,5.0,5.8,69,0.19,CLR,,0.19,WeatherDisplay:10.37,2013-05-26 17:27:00,
2013-05-26 07:32:00,79.7,68.6,30.06,NNW,338,5.5,6.9,69,0.19,CLR,,0.19,WeatherDisplay:10.37,2013-05-26 17:32:00,
2013-05-26 07:37:00,79.5,68.9,30.05,ENE,68,4.7,6.9,70,0.00,CLR,,0.19,WeatherDisplay:10.37,2013-05-26 17:37:00,
2013-05-26 07:42:00,79.5,68.9,30.05,NE,45,7.6,9.2,70,0.00,CLR,,0.19,WeatherDisplay:10.37,2013-05-26 17:42:00,
2013-05-26 07:47:00,80.6,69.5,30.05,WNW,292,4.7,5.8,69,0.00,CLR,,0.19,WeatherDisplay:10.37,2013-05-26 17:47:00,
2013-05-26 07:52:00,79.7,69.0,30.05,ENE,68,5.7,5.8,70,0.00,CLR,,0.19,WeatherDisplay:10.37,2013-05-26 17:52:00,
2013-05-26 07:57:00,80.6,69.5,30.05,East,90,5.9,15.0,69,0.00,CLR,,0.19,WeatherDisplay:10.37,2013-05-26 17:57:00,
2013-05-26 08:02:00,81.0,69.4,30.05,ESE,112,4.9,8.1,68,0.00,CLR,,0.19,WeatherDisplay:10.37,2013-05-26 18:02:00,
2013-05-26 08:08:00,80.1,69.0,30.05,East,90,4.6,5.8,69,0.00,CLR,,0.19,WeatherDisplay:10.37,2013-05-26 18:08:00,
2013-05-26 08:13:00,80.1,69.0,30.06,ENE,68,8.6,10.4,69,0.00,CLR,,0.19,WeatherDisplay:10.37,2013-05-26 18:13:00,
2013-05-26 08:18:00,80.4,69.3,30.06,ENE,68,7.1,8.1,69,0.00,CLR,,0.19,WeatherDisplay:10.37,2013-05-26 18:18:00,
2013-05-26 08:23:00,81.5,69.9,30.06,ESE,112,4.3,5.8,68,0.00,CLR,,0.19,WeatherDisplay:10.37,2013-05-26 18:23:00,
2013-05-26 08:28:00,80.2,69.1,30.06,East,90,7.3,10.4,69,0.00,CLR,,0.19,WeatherDisplay:10.37,2013-05-26 18:28:00,
2013-05-26 08:33:00,80.1,69.4,30.06,ESE,112,4.6,8.1,70,0.00,CLR,,0.19,WeatherDisplay:10.37,2013-05-26 18:33:00,
2013-05-26 08:38:00,80.1,68.6,30.06,ENE,68,7.0,9.2,68,0.00,CLR,,0.19,WeatherDisplay:10.37,2013-05-26 18:38:00,
2013-05-26 08:43:00,79.5,68.9,30.06,ESE,112,5.1,8.1,70,0.00,CLR,,0.19,WeatherDisplay:10.37,2013-05-26 18:43:00,
2013-05-26 08:48:00,78.6,68.8,30.06,NE,45,6.2,9.2,72,0.00,CLR,,0.19,WeatherDisplay:10.37,2013-05-26 18:48:00,
2013-05-26 08:53:00,80.4,70.1,30.06,NE,45,7.3,9.2,71,0.00,CLR,,0.19,WeatherDisplay:10.37,2013-05-26 18:53:00,
2013-05-26 08:58:00,81.3,69.7,30.06,ESE,112,9.1,13.0,68,0.00,CLR,,0.19,WeatherDisplay:10.37,2013-05-26 18:58:00,
2013-05-26 09:03:00,81.3,69.3,30.06,ENE,68,9.9,10.4,67,0.00,CLR,,0.19,WeatherDisplay:10.37,2013-05-26 19:03:00,
2013-05-26 09:08:00,80.4,69.3,30.06,ESE,112,6.1,8.8,69,0.00,CLR,,0.19,WeatherDisplay:10.37,2013-05-26 19:08:00,
2013-05-26 09:13:00,80.8,69.2,30.06,ENE,68,11.4,14.0,68,0.00,CLR,,0.19,WeatherDisplay:10.37,2013-05-26 19:13:00,
2013-05-26 09:19:00,80.6,69.1,30.06,NE,45,5.7,6.9,68,0.00,CLR,,0.19,WeatherDisplay:10.37,2013-05-26 19:19:00,
2013-05-26 09:24:00,81.7,69.2,30.06,SE,135,9.3,12.7,66,0.00,CLR,,0.19,WeatherDisplay:10.37,2013-05-26 19:24:00,
2013-05-26 09:29:00,80.2,68.7,30.06,East,90,9.2,10.4,68,0.00,CLR,,0.19,WeatherDisplay:10.37,2013-05-26 19:29:00,
2013-05-26 09:34:00,80.2,68.7,30.06,East,90,8.8,9.2,68,0.00,CLR,,0.19,WeatherDisplay:10.37,2013-05-26 19:34:00,
2013-05-26 09:39:00,81.3,68.9,30.06,East,90,6.2,9.4,66,0.00,CLR,,0.19,WeatherDisplay:10.37,2013-05-26 19:39:00,
2013-05-26 09:44:00,81.7,68.8,30.06,SSE,158,6.4,9.2,65,0.00,CLR,,0.19,WeatherDisplay:10.37,2013-05-26 19:44:00,
2013-05-26 09:49:00,82.4,69.9,30.06,East,90,5.6,10.4,66,0.00,CLR,,0.19,WeatherDisplay:10.37,2013-05-26 19:49:00,
2013-05-26 09:54:00,83.5,70.5,30.06,NNE,22,3.9,4.6,65,0.00,CLR,,0.19,WeatherDisplay:10.37,2013-05-26 19:54:00,
2013-05-26 09:59:00,82.0,69.1,30.06,East,90,6.7,8.1,65,0.00,CLR,,0.19,WeatherDisplay:10.37,2013-05-26 19:59:00,
2013-05-26 10:04:00,82.2,69.3,30.06,East,90,8.5,12.7,65,0.00,CLR,,0.19,WeatherDisplay:10.37,2013-05-26 20:04:00,
2013-05-26 10:09:00,82.2,69.7,30.06,ESE,112,8.6,15.0,66,0.00,CLR,,0.19,WeatherDisplay:10.37,2013-05-26 20:09:00,
2013-05-26 10:14:00,82.4,69.4,30.05,East,90,7.0,11.5,65,0.00,CLR,,0.19,WeatherDisplay:10.37,2013-05-26 20:14:00,
2013-05-26 10:19:00,80.2,69.1,30.05,ENE,68,9.5,11.5,69,0.00,CLR,,0.19,WeatherDisplay:10.37,2013-05-26 20:19:00,
2013-05-26 10:24:00,81.7,71.0,30.05,East,90,9.2,11.4,70,0.00,CLR,,0.19,WeatherDisplay:10.37,2013-05-26 20:24:00,
2013-05-26 10:30:00,81.8,69.8,30.05,East,97,7.0,15.0,67,0.00,CLR,,0.19,WeatherDisplay:10.37,2013-05-26 20:30:00,
2013-05-26 10:35:00,82.9,70.8,30.05,ESE,110,10.0,15.0,67,0.00,CLR,,0.19,WeatherDisplay:10.37,2013-05-26 20:35:00,
2013-05-26 10:40:00,82.1,69.6,30.05,East,97,9.0,15.0,66,0.00,CLR,,0.19,WeatherDisplay:10.37,2013-05-26 20:40:00,
2013-05-26 10:45:00,82.5,70.0,30.05,East,96,9.0,13.0,66,0.00,CLR,,0.19,WeatherDisplay:10.37,2013-05-26 20:45:00,
2013-05-26 10:50:00,82.8,69.8,30.05,East,90,11.1,15.0,65,0.00,CLR,,0.19,WeatherDisplay:10.37,2013-05-26 20:50:00,
2013-05-26 10:55:00,81.5,69.5,30.05,ESE,112,7.3,8.3,67,0.00,CLR,,0.19,WeatherDisplay:10.37,2013-05-26 20:55:00,
2013-05-26 11:00:00,81.0,69.4,30.05,East,90,10.7,12.7,68,0.00,CLR,,0.19,WeatherDisplay:10.37,2013-05-26 21:00:00,
2013-05-26 11:05:00,81.1,70.4,30.05,WNW,292,7.7,9.2,70,0.00,CLR,,0.19,WeatherDisplay:10.37,2013-05-26 21:05:00,
2013-05-26 11:10:00,82.2,70.6,30.05,East,90,10.9,10.9,68,0.00,CLR,,0.19,WeatherDisplay:10.37,2013-05-26 21:10:00,
2013-05-26 11:15:00,82.2,70.6,30.05,East,90,10.9,10.9,68,0.00,CLR,,0.19,WeatherDisplay:10.37,2013-05-26 21:15:00,
2013-05-26 11:20:00,82.2,70.6,30.05,East,90,10.9,10.9,68,0.00,CLR,,0.19,WeatherDisplay:10.37,2013-05-26 21:20:00,
2013-05-26 11:25:00,82.2,70.6,30.05,East,90,10.9,10.9,68,0.00,CLR,,0.19,WeatherDisplay:10.37,2013-05-26 21:25:00,
2013-05-26 11:30:00,82.2,70.6,30.05,East,90,10.9,10.9,68,0.00,CLR,,0.19,WeatherDisplay:10.37,2013-05-26 21:30:00,
2013-05-26 11:35:00,82.2,70.6,30.05,East,90,10.9,10.9,68,0.00,CLR,,0.19,WeatherDisplay:10.37,2013-05-26 21:35:00,
2013-05-26 11:40:00,82.2,70.6,30.05,East,90,10.9,10.9,68,0.00,CLR,,0.19,WeatherDisplay:10.37,2013-05-26 21:40:00,
2013-05-26 11:45:00,82.2,70.6,30.05,East,90,10.9,10.9,68,0.00,CLR,,0.19,WeatherDisplay:10.37,2013-05-26 21:45:00,
2013-05-26 11:50:00,82.2,70.6,30.05,East,90,10.9,10.9,68,0.00,CLR,,0.19,WeatherDisplay:10.37,2013-05-26 21:50:00,
2013-05-26 11:55:00,82.2,70.6,30.05,East,90,10.9,10.9,68,0.00,CLR,,0.19,WeatherDisplay:10.37,2013-05-26 21:55:00,
2013-05-26 12:00:00,82.2,70.6,30.05,East,90,10.9,10.9,68,0.00,CLR,,0.19,WeatherDisplay:10.37,2013-05-26 22:00:00,
2013-05-26 12:05:00,82.2,70.6,30.05,East,90,10.9,10.9,68,0.00,CLR,,0.19,WeatherDisplay:10.37,2013-05-26 22:05:00,
2013-05-26 12:11:00,82.2,70.6,30.05,East,90,10.9,10.9,68,0.00,CLR,,0.19,WeatherDisplay:10.37,2013-05-26 22:11:00,
2013-05-26 12:16:00,82.2,70.6,30.05,East,90,10.9,10.9,68,0.00,CLR,,0.19,WeatherDisplay:10.37,2013-05-26 22:16:00,
2013-05-26 12:21:00,82.2,70.6,30.05,East,90,10.9,10.9,68,0.00,CLR,,0.19,WeatherDisplay:10.37,2013-05-26 22:21:00,
2013-05-26 12:26:00,82.2,70.6,30.05,East,90,10.9,10.9,68,0.00,CLR,,0.19,WeatherDisplay:10.37,2013-05-26 22:26:00,
2013-05-26 12:31:00,82.2,70.6,30.05,East,90,10.9,10.9,68,0.00,CLR,,0.19,WeatherDisplay:10.37,2013-05-26 22:31:00,
2013-05-26 12:36:00,82.2,70.6,30.05,East,90,10.9,10.9,68,0.00,CLR,,0.19,WeatherDisplay:10.37,2013-05-26 22:36:00,
2013-05-26 12:41:00,82.2,70.6,30.05,East,90,10.9,10.9,68,0.00,CLR,,0.19,WeatherDisplay:10.37,2013-05-26 22:41:00,
2013-05-26 12:46:00,82.2,70.6,30.05,East,90,10.9,10.9,68,0.00,CLR,,0.19,WeatherDisplay:10.37,2013-05-26 22:46:00,
2013-05-26 12:51:00,81.1,70.4,30.03,East,90,8.3,10.4,70,0.00,CLR,,0.19,WeatherDisplay:10.37,2013-05-26 22:51:00,
2013-05-26 12:56:00,80.8,69.7,30.03,NNE,22,6.7,8.3,69,0.00,CLR,,0.19,WeatherDisplay:10.37,2013-05-26 22:56:00,
2013-05-26 13:01:00,80.2,69.1,30.03,NNE,22,7.5,15.0,69,0.00,CLR,,0.19,WeatherDisplay:10.37,2013-05-26 23:01:00,
2013-05-26 13:06:00,80.8,70.1,30.03,ENE,68,11.9,13.0,70,0.00,CLR,,0.19,WeatherDisplay:10.37,2013-05-26 23:06:00,
2013-05-26 13:11:00,82.2,71.0,30.02,SE,135,5.5,8.1,69,0.00,CLR,,0.19,WeatherDisplay:10.37,2013-05-26 23:11:00,
2013-05-26 13:16:00,82.0,70.4,30.02,ENE,68,10.4,10.4,68,0.00,CLR,,0.19,WeatherDisplay:10.37,2013-05-26 23:16:00,
2013-05-26 13:22:00,81.5,69.9,30.02,NNW,338,9.5,10.4,68,0.00,CLR,,0.19,WeatherDisplay:10.37,2013-05-26 23:22:00,
2013-05-26 13:27:00,80.1,69.4,30.02,ESE,112,9.4,11.5,70,0.00,CLR,,0.19,WeatherDisplay:10.37,2013-05-26 23:27:00,
2013-05-26 13:32:00,80.8,70.1,30.02,ESE,112,7.1,11.5,70,0.00,CLR,,0.19,WeatherDisplay:10.37,2013-05-26 23:32:00,
2013-05-26 13:37:00,80.4,69.7,30.03,NE,45,7.7,13.8,70,0.00,CLR,,0.19,WeatherDisplay:10.37,2013-05-26 23:37:00,
2013-05-26 13:42:00,80.1,70.3,30.03,East,90,8.2,10.4,72,0.00,CLR,,0.19,WeatherDisplay:10.37,2013-05-26 23:42:00,
2013-05-26 13:47:00,79.9,69.7,30.03,ENE,68,6.3,6.3,71,0.00,CLR,,0.19,WeatherDisplay:10.37,2013-05-26 23:47:00,
2013-05-26 13:52:00,79.9,70.1,30.02,NE,45,8.1,8.3,72,0.00,CLR,,0.19,WeatherDisplay:10.37,2013-05-26 23:52:00,
2013-05-26 13:57:00,80.4,70.1,30.02,East,90,13.7,16.1,71,0.00,CLR,,0.19,WeatherDisplay:10.37,2013-05-26 23:57:00,
2013-05-26 14:02:00,81.3,69.7,30.03,ESE,112,13.1,15.0,68,0.00,CLR,,0.19,WeatherDisplay:10.37,2013-05-27 00:02:00,
2013-05-26 14:07:00,80.4,69.7,30.03,ENE,68,8.6,10.4,70,0.00,CLR,,0.19,WeatherDisplay:10.37,2013-05-27 00:07:00,
2013-05-26 14:12:00,79.5,69.7,30.03,ENE,68,6.9,11.5,72,0.00,CLR,,0.19,WeatherDisplay:10.37,2013-05-27 00:12:00,
2013-05-26 14:17:00,79.3,69.1,30.03,ESE,112,9.8,11.4,71,0.00,CLR,,0.19,WeatherDisplay:10.37,2013-05-27 00:17:00,
2013-05-26 14:22:00,80.2,69.1,30.02,ESE,112,10.1,16.1,69,0.00,CLR,,0.19,WeatherDisplay:10.37,2013-05-27 00:22:00,
2013-05-26 14:28:00,79.0,68.8,30.02,NNW,338,6.8,15.0,71,0.00,CLR,,0.19,WeatherDisplay:10.37,2013-05-27 00:28:00,
2013-05-26 14:33:00,79.9,70.1,30.02,NE,45,7.2,10.4,72,0.00,CLR,,0.19,WeatherDisplay:10.37,2013-05-27 00:33:00,
2013-05-26 14:38:00,79.2,69.8,30.02,SSE,158,5.6,8.1,73,0.00,CLR,,0.19,WeatherDisplay:10.37,2013-05-27 00:38:00,
2013-05-26 14:43:00,80.6,70.7,30.02,East,90,4.8,6.3,72,0.00,CLR,,0.19,WeatherDisplay:10.37,2013-05-27 00:43:00,
2013-05-26 14:48:00,79.5,70.5,30.01,NNE,22,7.2,9.2,74,0.00,CLR,,0.19,WeatherDisplay:10.37,2013-05-27 00:48:00,
2013-05-26 14:53:00,79.3,70.3,30.01,East,90,8.4,10.4,74,0.00,CLR,,0.19,WeatherDisplay:10.37,2013-05-27 00:53:00,
2013-05-26 14:58:00,80.1,71.1,30.01,NE,45,6.2,9.2,74,0.00,CLR,,0.19,WeatherDisplay:10.37,2013-05-27 00:58:00,
2013-05-26 15:03:00,79.7,70.3,30.01,ENE,68,6.1,8.1,73,0.00,CLR,,0.19,WeatherDisplay:10.37,2013-05-27 01:03:00,
2013-05-26 15:08:00,79.7,70.3,30.01,NE,45,6.7,11.5,73,0.00,CLR,,0.19,WeatherDisplay:10.37,2013-05-27 01:08:00,
2013-05-26 15:13:00,79.5,69.3,30.01,ESE,112,12.3,13.5,71,0.00,CLR,,0.19,WeatherDisplay:10.37,2013-05-27 01:13:00,
2013-05-26 15:18:00,79.9,70.5,30.01,East,90,9.4,11.5,73,0.00,CLR,,0.19,WeatherDisplay:10.37,2013-05-27 01:18:00,
2013-05-26 15:23:00,79.9,70.5,30.00,NNW,338,7.5,10.4,73,0.00,CLR,,0.19,WeatherDisplay:10.37,2013-05-27 01:23:00,
2013-05-26 15:28:00,80.8,70.9,30.00,NNE,22,6.1,6.8,72,0.00,CLR,,0.19,WeatherDisplay:10.37,2013-05-27 01:28:00,
2013-05-26 15:33:00,80.4,70.5,30.00,East,90,8.2,8.2,72,0.00,CLR,,0.19,WeatherDisplay:10.37,2013-05-27 01:33:00,
2013-05-26 15:39:00,79.7,70.3,30.01,North,360,9.1,13.8,73,0.00,CLR,,0.19,WeatherDisplay:10.37,2013-05-27 01:39:00,
2013-05-26 15:44:00,79.7,69.9,30.01,ENE,68,9.1,10.4,72,0.00,CLR,,0.19,WeatherDisplay:10.37,2013-05-27 01:44:00,
2013-05-26 15:49:00,79.0,70.0,30.00,NNE,22,5.9,8.8,74,0.00,CLR,,0.19,WeatherDisplay:10.37,2013-05-27 01:49:00,
2013-05-26 15:54:00,79.3,71.1,30.00,NNE,22,7.3,9.2,76,0.00,CLR,,0.19,WeatherDisplay:10.37,2013-05-27 01:54:00,
2013-05-26 15:59:00,78.6,70.0,30.00,SE,135,7.6,8.8,75,0.00,CLR,,0.19,WeatherDisplay:10.37,2013-05-27 01:59:00,
2013-05-26 16:04:00,79.0,70.4,30.00,ESE,112,5.8,9.2,75,0.00,CLR,,0.19,WeatherDisplay:10.37,2013-05-27 02:04:00,
2013-05-26 16:09:00,79.0,69.6,30.00,ENE,68,6.4,6.9,73,0.00,CLR,,0.19,WeatherDisplay:10.37,2013-05-27 02:09:00,
2013-05-26 16:14:00,79.3,70.3,30.00,NE,45,7.8,8.1,74,0.00,CLR,,0.19,WeatherDisplay:10.37,2013-05-27 02:14:00,
2013-05-26 16:19:00,81.0,71.5,30.00,East,90,4.1,8.8,73,0.00,CLR,,0.19,WeatherDisplay:10.37,2013-05-27 02:19:00,
2013-05-26 16:24:00,80.4,70.1,30.00,NNE,22,7.3,9.4,71,0.00,CLR,,0.19,WeatherDisplay:10.37,2013-05-27 02:24:00,
2013-05-26 16:29:00,79.7,70.3,30.00,East,90,7.0,8.8,73,0.00,CLR,,0.19,WeatherDisplay:10.37,2013-05-27 02:29:00,
2013-05-26 16:34:00,79.5,71.7,30.00,East,90,5.8,10.4,77,0.00,CLR,,0.19,WeatherDisplay:10.37,2013-05-27 02:34:00,
2013-05-26 16:39:00,78.6,71.5,30.00,NNW,338,3.2,4.6,79,0.00,CLR,,0.19,WeatherDisplay:10.37,2013-05-27 02:39:00,
2013-05-26 16:44:00,78.1,71.1,30.00,NE,45,5.7,10.4,79,0.00,CLR,,0.19,WeatherDisplay:10.37,2013-05-27 02:44:00,
2013-05-26 16:50:00,77.9,70.9,30.00,ENE,57,7.0,10.0,79,0.00,CLR,,0.19,WeatherDisplay:10.37,2013-05-27 02:50:00,
2013-05-26 16:55:00,77.9,70.9,30.00,ENE,59,6.0,12.0,79,0.00,CLR,,0.19,WeatherDisplay:10.37,2013-05-27 02:55:00,
2013-05-26 17:00:00,77.9,70.5,30.00,ENE,68,7.5,8.1,78,0.00,CLR,,0.19,WeatherDisplay:10.37,2013-05-27 03:00:00,
2013-05-26 17:05:00,77.7,70.3,30.00,East,80,7.0,13.0,78,0.00,CLR,,0.19,WeatherDisplay:10.37,2013-05-27 03:05:00,
2013-05-26 17:10:00,77.5,70.1,30.00,East,84,7.0,10.0,78,0.00,CLR,,0.19,WeatherDisplay:10.37,2013-05-27 03:10:00,
2013-05-26 17:15:00,77.7,70.7,30.00,East,101,6.0,9.0,79,0.00,CLR,,0.19,WeatherDisplay:10.37,2013-05-27 03:15:00,
2013-05-26 17:20:00,77.5,70.5,30.00,East,84,8.0,10.0,79,0.00,CLR,,0.19,WeatherDisplay:10.37,2013-05-27 03:20:00,
2013-05-26 17:25:00,77.7,70.7,30.00,ENE,74,6.0,12.0,79,0.00,CLR,,0.19,WeatherDisplay:10.37,2013-05-27 03:25:00,
2013-05-26 17:30:00,77.7,70.3,30.00,East,80,6.0,11.0,78,0.00,CLR,,0.19,WeatherDisplay:10.37,2013-05-27 03:30:00,
2013-05-26 17:35:00,77.4,70.0,30.00,East,82,9.0,15.0,78,0.00,CLR,,0.19,WeatherDisplay:10.37,2013-05-27 03:35:00,
2013-05-26 17:40:00,77.5,70.1,30.00,East,94,8.0,10.0,78,0.00,CLR,,0.19,WeatherDisplay:10.37,2013-05-27 03:40:00,
2013-05-26 17:45:00,77.2,69.8,30.00,ESE,112,8.6,9.2,78,0.00,CLR,,0.19,WeatherDisplay:10.37,2013-05-27 03:45:00,
2013-05-26 17:50:00,77.1,70.1,30.01,ENE,71,5.0,9.0,79,0.00,CLR,,0.19,WeatherDisplay:10.37,2013-05-27 03:50:00,
2013-05-26 17:55:00,77.0,70.0,30.01,ENE,68,8.1,10.4,79,0.00,CLR,,0.19,WeatherDisplay:10.37,2013-05-27 03:55:00,
2013-05-26 18:00:00,77.0,70.4,30.01,ENE,67,7.0,8.0,80,0.00,CLR,,0.19,WeatherDisplay:10.37,2013-05-27 04:00:00,
2013-05-26 18:01:00,77.0,70.4,30.01,East,90,7.3,8.1,80,0.00,CLR,,0.19,WeatherDisplay:10.37,2013-05-27 04:01:00,
2013-05-26 18:02:00,77.0,70.4,30.01,ENE,68,7.8,9.2,80,0.00,CLR,,0.19,WeatherDisplay:10.37,2013-05-27 04:02:00,
2013-05-26 18:03:00,77.2,70.5,30.01,ESE,112,5.1,8.1,80,0.00,CLR,,0.19,WeatherDisplay:10.37,2013-05-27 04:03:00,
2013-05-26 18:08:00,77.2,70.2,30.01,ENE,68,6.4,8.1,79,0.00,CLR,,0.19,WeatherDisplay:10.37,2013-05-27 04:08:00,
2013-05-26 18:13:00,77.2,70.2,30.01,ESE,112,7.3,8.1,79,0.00,CLR,,0.19,WeatherDisplay:10.37,2013-05-27 04:13:00,
2013-05-26 18:18:00,77.2,70.5,30.01,East,90,6.0,8.1,80,0.00,CLR,,0.19,WeatherDisplay:10.37,2013-05-27 04:18:00,
2013-05-26 18:23:00,77.2,70.5,30.02,ENE,68,5.8,7.8,80,0.00,CLR,,0.19,WeatherDisplay:10.37,2013-05-27 04:23:00,
2013-05-26 18:29:00,77.0,70.4,30.02,NNE,22,4.3,7.3,80,0.00,CLR,,0.19,WeatherDisplay:10.37,2013-05-27 04:29:00,
2013-05-26 18:34:00,76.8,70.5,30.02,East,90,7.9,11.5,81,0.00,CLR,,0.19,WeatherDisplay:10.37,2013-05-27 04:34:00,
2013-05-26 18:39:00,76.6,70.3,30.02,ESE,112,7.8,9.2,81,0.00,CLR,,0.19,WeatherDisplay:10.37,2013-05-27 04:39:00,
2013-05-26 18:44:00,76.6,70.3,30.02,ESE,112,6.4,8.3,81,0.00,CLR,,0.19,WeatherDisplay:10.37,2013-05-27 04:44:00,
2013-05-26 18:49:00,76.6,70.3,30.02,NNE,22,3.7,3.7,81,0.00,CLR,,0.19,WeatherDisplay:10.37,2013-05-27 04:49:00,
2013-05-26 18:54:00,76.5,70.6,30.02,North,360,6.0,8.1,82,0.00,CLR,,0.19,WeatherDisplay:10.37,2013-05-27 04:54:00,
2013-05-26 18:59:00,76.5,70.6,30.02,NE,45,5.4,6.3,82,0.00,CLR,,0.19,WeatherDisplay:10.37,2013-05-27 04:59:00,
2013-05-26 19:04:00,76.5,70.6,30.02,ENE,68,3.9,4.6,82,0.00,CLR,,0.19,WeatherDisplay:10.37,2013-05-27 05:04:00,
2013-05-26 19:09:00,76.3,70.8,30.02,North,360,3.8,5.8,83,0.00,CLR,,0.19,WeatherDisplay:10.37,2013-05-27 05:09:00,
2013-05-26 19:14:00,76.5,70.9,30.02,ENE,68,2.9,6.8,83,0.00,CLR,,0.19,WeatherDisplay:10.37,2013-05-27 05:14:00,
2013-05-26 19:19:00,76.5,70.9,30.02,ESE,112,8.1,8.1,83,0.00,CLR,,0.19,WeatherDisplay:10.37,2013-05-27 05:19:00,
2013-05-26 19:24:00,76.6,70.7,30.03,West,270,5.9,11.5,82,0.00,CLR,,0.19,WeatherDisplay:10.37,2013-05-27 05:24:00,
2013-05-26 19:29:00,76.6,70.7,30.03,NE,45,4.9,5.8,82,0.00,CLR,,0.19,WeatherDisplay:10.37,2013-05-27 05:29:00,
2013-05-26 19:34:00,76.6,70.7,30.04,East,90,6.2,6.2,82,0.00,CLR,,0.19,WeatherDisplay:10.37,2013-05-27 05:34:00,
2013-05-26 19:40:00,76.6,70.7,30.04,East,84,3.0,9.0,82,0.00,CLR,,0.19,WeatherDisplay:10.37,2013-05-27 05:40:00,
2013-05-26 19:45:00,76.5,70.6,30.04,East,90,5.6,6.9,82,0.00,CLR,,0.19,WeatherDisplay:10.37,2013-05-27 05:45:00,
2013-05-26 19:50:00,76.1,70.2,30.04,SSE,158,3.7,5.8,82,0.00,CLR,,0.19,WeatherDisplay:10.37,2013-05-27 05:50:00,
2013-05-26 19:55:00,76.1,70.2,30.04,SE,135,4.6,9.9,82,0.00,CLR,,0.19,WeatherDisplay:10.37,2013-05-27 05:55:00,
2013-05-26 20:00:00,76.1,70.2,30.04,East,90,6.6,8.1,82,0.00,CLR,,0.19,WeatherDisplay:10.37,2013-05-27 06:00:00,
2013-05-26 20:05:00,76.3,70.0,30.04,SE,135,4.2,4.6,81,0.00,CLR,,0.19,WeatherDisplay:10.37,2013-05-27 06:05:00,
2013-05-26 20:10:00,76.1,69.8,30.04,ENE,68,5.4,6.8,81,0.00,CLR,,0.19,WeatherDisplay:10.37,2013-05-27 06:10:00,
2013-05-26 20:15:00,76.3,70.0,30.05,ESE,112,5.7,5.8,81,0.00,CLR,,0.19,WeatherDisplay:10.37,2013-05-27 06:15:00,
2013-05-26 20:20:00,76.3,70.0,30.05,East,90,4.9,8.8,81,0.00,CLR,,0.19,WeatherDisplay:10.37,2013-05-27 06:20:00,
2013-05-26 20:25:00,76.3,69.7,30.06,ESE,112,6.7,8.1,80,0.00,CLR,,0.19,WeatherDisplay:10.37,2013-05-27 06:25:00,
2013-05-26 20:30:00,76.3,69.7,30.06,ENE,68,6.3,7.3,80,0.00,CLR,,0.19,WeatherDisplay:10.37,2013-05-27 06:30:00,
2013-05-26 20:35:00,76.5,69.9,30.06,SE,135,7.9,9.2,80,0.00,CLR,,0.19,WeatherDisplay:10.37,2013-05-27 06:35:00,
2013-05-26 20:40:00,76.5,69.9,30.06,NE,45,4.1,5.8,80,0.00,CLR,,0.19,WeatherDisplay:10.37,2013-05-27 06:40:00,
2013-05-26 20:45:00,76.3,69.7,30.06,NE,45,6.2,8.1,80,0.00,CLR,,0.19,WeatherDisplay:10.37,2013-05-27 06:45:00,
2013-05-26 20:50:00,76.3,69.7,30.07,ESE,112,6.6,9.9,80,0.00,CLR,,0.19,WeatherDisplay:10.37,2013-05-27 06:50:00,
2013-05-26 20:56:00,76.3,69.7,30.07,ESE,112,3.8,4.6,80,0.00,CLR,,0.19,WeatherDisplay:10.37,2013-05-27 06:56:00,
2013-05-26 21:01:00,76.3,69.7,30.07,ESE,112,5.9,13.5,80,0.00,CLR,,0.19,WeatherDisplay:10.37,2013-05-27 07:01:00,
2013-05-26 21:06:00,76.3,69.7,30.07,ESE,112,7.4,10.4,80,0.00,CLR,,0.19,WeatherDisplay:10.37,2013-05-27 07:06:00,
2013-05-26 21:11:00,76.3,69.7,30.08,West,270,4.0,4.6,80,0.00,CLR,,0.19,WeatherDisplay:10.37,2013-05-27 07:11:00,
2013-05-26 21:16:00,76.3,69.7,30.08,ENE,68,4.9,6.9,80,0.00,CLR,,0.19,WeatherDisplay:10.37,2013-05-27 07:16:00,
2013-05-26 21:21:00,76.1,69.8,30.08,SE,135,8.4,9.2,81,0.00,CLR,,0.19,WeatherDisplay:10.37,2013-05-27 07:21:00,
2013-05-26 21:26:00,76.3,70.0,30.07,East,90,6.9,10.4,81,0.00,CLR,,0.19,WeatherDisplay:10.37,2013-05-27 07:26:00,
2013-05-26 21:31:00,76.3,70.0,30.07,ESE,112,3.4,5.8,81,0.00,CLR,,0.19,WeatherDisplay:10.37,2013-05-27 07:31:00,
2013-05-26 21:36:00,76.1,70.2,30.08,ESE,112,6.6,8.1,82,0.00,CLR,,0.19,WeatherDisplay:10.37,2013-05-27 07:36:00,
2013-05-26 21:41:00,76.1,70.2,30.08,SE,135,5.0,9.2,82,0.00,CLR,,0.19,WeatherDisplay:10.37,2013-05-27 07:41:00,
2013-05-26 21:46:00,76.1,70.2,30.08,ESE,112,7.0,11.9,82,0.00,CLR,,0.19,WeatherDisplay:10.37,2013-05-27 07:46:00,
2013-05-26 21:51:00,75.9,70.0,30.08,NE,45,8.6,10.4,82,0.00,CLR,,0.19,WeatherDisplay:10.37,2013-05-27 07:51:00,
2013-05-26 21:56:00,75.9,70.0,30.08,East,90,11.2,15.0,82,0.00,CLR,,0.19,WeatherDisplay:10.37,2013-05-27 07:56:00,
2013-05-26 22:01:00,75.9,69.3,30.09,East,90,8.6,11.5,80,0.00,CLR,,0.19,WeatherDisplay:10.37,2013-05-27 08:01:00,
2013-05-26 22:07:00,75.9,69.3,30.09,South,180,4.3,5.8,80,0.00,CLR,,0.19,WeatherDisplay:10.37,2013-05-27 08:07:00,
2013-05-26 22:12:00,75.9,68.9,30.10,ESE,112,6.5,6.9,79,0.00,CLR,,0.19,WeatherDisplay:10.37,2013-05-27 08:12:00,
2013-05-26 22:17:00,76.1,68.7,30.10,SE,135,9.2,10.4,78,0.00,CLR,,0.19,WeatherDisplay:10.37,2013-05-27 08:17:00,
2013-05-26 22:22:00,76.3,68.9,30.10,ESE,112,9.4,10.4,78,0.00,CLR,,0.19,WeatherDisplay:10.37,2013-05-27 08:22:00,
2013-05-26 22:27:00,76.3,68.9,30.10,WSW,248,7.1,10.4,78,0.00,CLR,,0.19,WeatherDisplay:10.37,2013-05-27 08:27:00,
2013-05-26 22:32:00,76.3,68.9,30.10,East,90,7.2,11.5,78,0.00,CLR,,0.19,WeatherDisplay:10.37,2013-05-27 08:32:00,
2013-05-26 22:37:00,76.3,68.9,30.09,ESE,112,8.5,12.7,78,0.00,CLR,,0.19,WeatherDisplay:10.37,2013-05-27 08:37:00,
2013-05-26 22:42:00,76.3,69.3,30.09,NE,45,8.7,11.5,79,0.00,CLR,,0.19,WeatherDisplay:10.37,2013-05-27 08:42:00,
2013-05-26 22:47:00,76.3,69.3,30.09,ENE,68,7.9,10.9,79,0.00,CLR,,0.19,WeatherDisplay:10.37,2013-05-27 08:47:00,
2013-05-26 22:52:00,76.3,68.9,30.09,ESE,112,7.4,10.4,78,0.00,CLR,,0.19,WeatherDisplay:10.37,2013-05-27 08:52:00,
2013-05-26 22:57:00,76.3,68.9,30.09,ESE,112,9.8,13.8,78,0.00,CLR,,0.19,WeatherDisplay:10.37,2013-05-27 08:57:00,
2013-05-26 23:02:00,76.3,68.9,30.10,SSE,158,7.1,9.2,78,0.00,CLR,,0.19,WeatherDisplay:10.37,2013-05-27 09:02:00,
2013-05-26 23:07:00,76.1,69.1,30.10,East,90,8.9,12.4,79,0.00,CLR,,0.19,WeatherDisplay:10.37,2013-05-27 09:07:00,
2013-05-26 23:12:00,76.3,69.3,30.09,ESE,112,6.0,6.3,79,0.00,CLR,,0.19,WeatherDisplay:10.37,2013-05-27 09:12:00,
2013-05-26 23:18:00,76.1,69.1,30.09,ESE,112,5.7,10.4,79,0.00,CLR,,0.19,WeatherDisplay:10.37,2013-05-27 09:18:00,
2013-05-26 23:23:00,76.1,69.5,30.09,SE,135,5.5,6.9,80,0.00,CLR,,0.19,WeatherDisplay:10.37,2013-05-27 09:23:00,
2013-05-26 23:28:00,76.1,69.5,30.09,SE,135,7.6,8.3,80,0.00,CLR,,0.19,WeatherDisplay:10.37,2013-05-27 09:28:00,
2013-05-26 23:33:00,76.1,69.5,30.09,East,90,9.2,12.7,80,0.00,CLR,,0.19,WeatherDisplay:10.37,2013-05-27 09:33:00,
2013-05-26 23:38:00,75.9,68.9,30.09,ESE,112,4.7,8.8,79,0.00,CLR,,0.19,WeatherDisplay:10.37,2013-05-27 09:38:00,
2013-05-26 23:43:00,75.9,68.5,30.09,NW,315,6.6,10.4,78,0.00,CLR,,0.19,WeatherDisplay:10.37,2013-05-27 09:43:00,
2013-05-26 23:48:00,75.9,68.2,30.08,ESE,112,5.4,8.1,77,0.00,CLR,,0.19,WeatherDisplay:10.37,2013-05-27 09:48:00,
2013-05-26 23:53:00,75.9,68.2,30.08,SE,135,7.0,10.4,77,0.00,CLR,,0.19,WeatherDisplay:10.37,2013-05-27 09:53:00,
2013-05-26 23:58:00,75.9,68.2,30.08,ENE,68,4.9,7.3,77,0.00,CLR,,0.19,WeatherDisplay:10.37,2013-05-27 09:58:00,